sensor_id;sensor_type;location;lat;lon;timestamp;temperature;humidity
41722;DHT22;27407;24.142;-110.310;2023-08-30T17:08:09;34.80;99.90
41722;DHT22;27407;24.142;-110.310;2023-08-30T17:10:39;35.80;99.90
41722;DHT22;27407;24.142;-110.310;2023-08-30T17:13:05;35.70;99.90
41722;DHT22;27407;24.142;-110.310;2023-08-30T17:15:32;36.20;99.90
41722;DHT22;27407;24.142;-110.310;2023-08-30T17:17:59;36.30;99.90
41722;DHT22;27407;24.142;-110.310;2023-08-30T17:20:25;36.10;99.90
41722;DHT22;27407;24.142;-110.310;2023-08-30T17:22:52;35.80;99.90
41722;DHT22;27407;24.142;-110.310;2023-08-30T17:25:18;36.20;99.90
41722;DHT22;27407;24.142;-110.310;2023-08-30T17:27:45;36.50;99.90
41722;DHT22;27407;24.142;-110.310;2023-08-30T17:30:12;36.40;99.90
41722;DHT22;27407;24.142;-110.310;2023-08-30T17:32:39;36.90;99.90
41722;DHT22;27407;24.142;-110.310;2023-08-30T17:35:06;36.70;99.90
41722;DHT22;27407;24.142;-110.310;2023-08-30T17:37:33;36.80;99.90
41722;DHT22;27407;24.142;-110.310;2023-08-30T17:40:00;37.40;99.90
41722;DHT22;27407;24.142;-110.310;2023-08-30T17:42:26;37.70;99.90
41722;DHT22;27407;24.142;-110.310;2023-08-30T17:44:53;37.60;99.90
41722;DHT22;27407;24.142;-110.310;2023-08-30T17:47:19;38.30;99.90
41722;DHT22;27407;24.142;-110.310;2023-08-30T17:49:46;37.80;99.90
41722;DHT22;27407;24.142;-110.310;2023-08-30T17:52:13;37.50;99.90
41722;DHT22;27407;24.142;-110.310;2023-08-30T17:54:39;37.30;99.90
41722;DHT22;27407;24.142;-110.310;2023-08-30T17:57:06;37.20;99.90
41722;DHT22;27407;24.142;-110.310;2023-08-30T17:59:36;37.30;99.90
41722;DHT22;27407;24.142;-110.310;2023-08-30T18:02:02;37.70;99.90
41722;DHT22;27407;24.142;-110.310;2023-08-30T18:04:30;38.20;99.90
41722;DHT22;27407;24.142;-110.310;2023-08-30T18:06:57;38.80;99.90
41722;DHT22;27407;24.142;-110.310;2023-08-30T18:09:25;38.50;99.90
41722;DHT22;27407;24.142;-110.310;2023-08-30T18:11:52;38.30;99.90
41722;DHT22;27407;24.142;-110.310;2023-08-30T18:14:19;39.10;99.90
41722;DHT22;27407;24.142;-110.310;2023-08-30T18:16:46;39.30;99.90
41722;DHT22;27407;24.142;-110.310;2023-08-30T18:19:12;39.80;99.90
41722;DHT22;27407;24.142;-110.310;2023-08-30T18:21:39;39.80;99.90
41722;DHT22;27407;24.142;-110.310;2023-08-30T18:24:19;39.70;99.90
41722;DHT22;27407;24.142;-110.310;2023-08-30T18:26:56;39.30;99.90
41722;DHT22;27407;24.142;-110.310;2023-08-30T18:32:04;39.20;99.90
41722;DHT22;27407;24.142;-110.310;2023-08-30T18:34:30;38.00;99.90
41722;DHT22;27407;24.142;-110.310;2023-08-30T18:36:57;37.50;99.90
41722;DHT22;27407;24.142;-110.310;2023-08-30T18:39:24;37.90;99.90
41722;DHT22;27407;24.142;-110.310;2023-08-30T18:41:51;38.40;99.90
41722;DHT22;27407;24.142;-110.310;2023-08-30T18:44:17;38.60;99.90
41722;DHT22;27407;24.142;-110.310;2023-08-30T18:46:44;38.10;99.90
41722;DHT22;27407;24.142;-110.310;2023-08-30T18:49:10;38.20;99.90
41722;DHT22;27407;24.142;-110.310;2023-08-30T18:51:37;38.40;99.90
41722;DHT22;27407;24.142;-110.310;2023-08-30T18:54:04;39.20;99.90
41722;DHT22;27407;24.142;-110.310;2023-08-30T18:56:31;39.30;99.90
41722;DHT22;27407;24.142;-110.310;2023-08-30T18:58:57;39.00;99.90
41722;DHT22;27407;24.142;-110.310;2023-08-30T19:01:24;39.60;99.90
41722;DHT22;27407;24.142;-110.310;2023-08-30T19:03:55;40.10;99.90
41722;DHT22;27407;24.142;-110.310;2023-08-30T19:06:21;40.60;99.90
41722;DHT22;27407;24.142;-110.310;2023-08-30T19:08:48;41.20;99.90
41722;DHT22;27407;24.142;-110.310;2023-08-30T19:11:17;41.70;99.90
41722;DHT22;27407;24.142;-110.310;2023-08-30T19:13:44;41.80;99.90
41722;DHT22;27407;24.142;-110.310;2023-08-30T19:16:11;41.50;99.90
41722;DHT22;27407;24.142;-110.310;2023-08-30T19:18:40;41.60;99.90
41722;DHT22;27407;24.142;-110.310;2023-08-30T19:21:07;42.10;99.90
41722;DHT22;27407;24.142;-110.310;2023-08-30T19:23:34;42.70;99.90
41722;DHT22;27407;24.142;-110.310;2023-08-30T19:26:00;42.70;99.90
41722;DHT22;27407;24.142;-110.310;2023-08-30T19:28:27;42.00;99.90
41722;DHT22;27407;24.142;-110.310;2023-08-30T19:30:53;41.20;99.90
41722;DHT22;27407;24.142;-110.310;2023-08-30T19:33:21;41.80;99.90
41722;DHT22;27407;24.142;-110.310;2023-08-30T19:35:48;41.80;99.90
41722;DHT22;27407;24.142;-110.310;2023-08-30T19:38:14;41.70;99.90
41722;DHT22;27407;24.142;-110.310;2023-08-30T19:40:51;41.30;99.90
41722;DHT22;27407;24.142;-110.310;2023-08-30T19:43:19;40.70;99.90
41722;DHT22;27407;24.142;-110.310;2023-08-30T19:45:46;41.00;99.90
41722;DHT22;27407;24.142;-110.310;2023-08-30T19:48:13;42.20;99.90
41722;DHT22;27407;24.142;-110.310;2023-08-30T19:50:40;42.80;99.90
41722;DHT22;27407;24.142;-110.310;2023-08-30T19:53:06;42.80;99.90
41722;DHT22;27407;24.142;-110.310;2023-08-30T19:55:33;42.00;99.90
41722;DHT22;27407;24.142;-110.310;2023-08-30T19:57:59;41.70;99.90
41722;DHT22;27407;24.142;-110.310;2023-08-30T20:00:29;41.00;99.90
41722;DHT22;27407;24.142;-110.310;2023-08-30T20:02:56;40.60;99.90
41722;DHT22;27407;24.142;-110.310;2023-08-30T20:05:22;40.30;99.90
41722;DHT22;27407;24.142;-110.310;2023-08-30T20:07:50;40.60;99.90
41722;DHT22;27407;24.142;-110.310;2023-08-30T20:10:17;42.10;99.90
41722;DHT22;27407;24.142;-110.310;2023-08-30T20:12:43;42.30;99.90
41722;DHT22;27407;24.142;-110.310;2023-08-30T20:15:10;42.60;99.90
41722;DHT22;27407;24.142;-110.310;2023-08-30T20:17:37;42.00;99.90
41722;DHT22;27407;24.142;-110.310;2023-08-30T20:20:04;41.90;99.90
41722;DHT22;27407;24.142;-110.310;2023-08-30T20:22:31;41.70;99.90
41722;DHT22;27407;24.142;-110.310;2023-08-30T20:24:57;41.40;99.90
41722;DHT22;27407;24.142;-110.310;2023-08-30T20:27:25;41.40;99.90
41722;DHT22;27407;24.142;-110.310;2023-08-30T20:29:51;41.00;99.90
41722;DHT22;27407;24.142;-110.310;2023-08-30T20:32:18;41.20;99.90
41722;DHT22;27407;24.142;-110.310;2023-08-30T20:34:45;40.80;99.90
41722;DHT22;27407;24.142;-110.310;2023-08-30T20:37:12;40.40;99.90
41722;DHT22;27407;24.142;-110.310;2023-08-30T20:39:39;40.20;99.90
41722;DHT22;27407;24.142;-110.310;2023-08-30T20:42:06;39.80;99.90
41722;DHT22;27407;24.142;-110.310;2023-08-30T20:44:32;39.70;99.90
41722;DHT22;27407;24.142;-110.310;2023-08-30T20:46:59;39.50;99.90
41722;DHT22;27407;24.142;-110.310;2023-08-30T20:49:25;39.20;99.90
41722;DHT22;27407;24.142;-110.310;2023-08-30T20:51:52;39.10;99.90
41722;DHT22;27407;24.142;-110.310;2023-08-30T20:54:18;38.70;99.90
41722;DHT22;27407;24.142;-110.310;2023-08-30T20:56:45;38.10;99.90
41722;DHT22;27407;24.142;-110.310;2023-08-30T20:59:12;37.40;99.90
41722;DHT22;27407;24.142;-110.310;2023-08-30T21:01:39;37.10;99.90
41722;DHT22;27407;24.142;-110.310;2023-08-30T21:04:06;36.50;99.90
41722;DHT22;27407;24.142;-110.310;2023-08-30T21:06:33;35.90;99.90
41722;DHT22;27407;24.142;-110.310;2023-08-30T21:08:59;34.50;99.90
41722;DHT22;27407;24.142;-110.310;2023-08-30T21:11:26;32.50;99.90
41722;DHT22;27407;24.142;-110.310;2023-08-30T21:13:52;31.20;99.90
41722;DHT22;27407;24.142;-110.310;2023-08-30T21:16:19;30.40;99.90
41722;DHT22;27407;24.142;-110.310;2023-08-30T21:18:45;30.00;99.90
41722;DHT22;27407;24.142;-110.310;2023-08-30T21:21:12;29.50;99.90
41722;DHT22;27407;24.142;-110.310;2023-08-30T21:23:39;29.20;99.90
41722;DHT22;27407;24.142;-110.310;2023-08-30T21:26:05;29.20;99.90
41722;DHT22;27407;24.142;-110.310;2023-08-30T21:28:32;29.40;99.90
41722;DHT22;27407;24.142;-110.310;2023-08-30T21:30:58;29.50;99.90
41722;DHT22;27407;24.142;-110.310;2023-08-30T21:33:25;29.60;99.90
41722;DHT22;27407;24.142;-110.310;2023-08-30T21:35:52;29.50;99.90
41722;DHT22;27407;24.142;-110.310;2023-08-30T21:38:19;29.40;99.90
41722;DHT22;27407;24.142;-110.310;2023-08-30T21:40:46;29.40;99.90
41722;DHT22;27407;24.142;-110.310;2023-08-30T21:43:14;29.50;99.90
41722;DHT22;27407;24.142;-110.310;2023-08-30T21:45:40;29.60;99.90
41722;DHT22;27407;24.142;-110.310;2023-08-30T21:48:08;29.60;99.90
41722;DHT22;27407;24.142;-110.310;2023-08-30T21:50:35;29.80;99.90
41722;DHT22;27407;24.142;-110.310;2023-08-30T21:53:02;29.80;99.90
41722;DHT22;27407;24.142;-110.310;2023-08-30T21:55:29;29.60;99.90
41722;DHT22;27407;24.142;-110.310;2023-08-30T21:57:55;29.40;99.90
41722;DHT22;27407;24.142;-110.310;2023-08-30T22:00:22;28.90;99.90
41722;DHT22;27407;24.142;-110.310;2023-08-30T22:02:48;28.90;99.90
41722;DHT22;27407;24.142;-110.310;2023-08-30T22:05:15;28.90;99.90
41722;DHT22;27407;24.142;-110.310;2023-08-30T22:07:42;28.80;99.90
41722;DHT22;27407;24.142;-110.310;2023-08-30T22:10:10;28.70;99.90
41722;DHT22;27407;24.142;-110.310;2023-08-30T22:12:41;28.70;99.90
41722;DHT22;27407;24.142;-110.310;2023-08-30T22:15:10;28.90;99.90
41722;DHT22;27407;24.142;-110.310;2023-08-30T22:17:44;28.80;99.90
41722;DHT22;27407;24.142;-110.310;2023-08-30T22:20:12;28.80;99.90
41722;DHT22;27407;24.142;-110.310;2023-08-30T22:22:39;29.00;99.90
41722;DHT22;27407;24.142;-110.310;2023-08-30T22:25:09;29.00;99.90
41722;DHT22;27407;24.142;-110.310;2023-08-30T22:27:37;29.10;99.90
41722;DHT22;27407;24.142;-110.310;2023-08-30T22:30:04;29.00;99.90
41722;DHT22;27407;24.142;-110.310;2023-08-30T22:32:33;29.30;99.90
41722;DHT22;27407;24.142;-110.310;2023-08-30T22:35:05;29.70;99.90
41722;DHT22;27407;24.142;-110.310;2023-08-30T22:37:32;29.90;99.90
41722;DHT22;27407;24.142;-110.310;2023-08-30T22:39:59;29.70;99.90
41722;DHT22;27407;24.142;-110.310;2023-08-30T22:42:26;29.90;99.90
41722;DHT22;27407;24.142;-110.310;2023-08-30T22:44:53;30.20;99.90
41722;DHT22;27407;24.142;-110.310;2023-08-30T22:47:20;30.50;99.90
41722;DHT22;27407;24.142;-110.310;2023-08-30T22:49:47;31.10;99.90
41722;DHT22;27407;24.142;-110.310;2023-08-30T22:52:14;31.70;99.90
41722;DHT22;27407;24.142;-110.310;2023-08-30T22:54:40;32.30;99.90
41722;DHT22;27407;24.142;-110.310;2023-08-30T22:57:07;32.60;99.90
41722;DHT22;27407;24.142;-110.310;2023-08-30T22:59:34;33.00;99.90
41722;DHT22;27407;24.142;-110.310;2023-08-30T23:02:01;33.40;99.90
41722;DHT22;27407;24.142;-110.310;2023-08-30T23:04:27;34.10;99.90
41722;DHT22;27407;24.142;-110.310;2023-08-30T23:06:54;35.10;99.90
41722;DHT22;27407;24.142;-110.310;2023-08-30T23:09:21;35.70;99.90
41722;DHT22;27407;24.142;-110.310;2023-08-30T23:11:48;35.90;99.90
41722;DHT22;27407;24.142;-110.310;2023-08-30T23:14:15;36.70;99.90
41722;DHT22;27407;24.142;-110.310;2023-08-30T23:16:42;37.80;99.90
41722;DHT22;27407;24.142;-110.310;2023-08-30T23:19:09;38.00;99.90
41722;DHT22;27407;24.142;-110.310;2023-08-30T23:21:36;38.30;99.90
41722;DHT22;27407;24.142;-110.310;2023-08-30T23:24:02;38.80;99.90
41722;DHT22;27407;24.142;-110.310;2023-08-30T23:26:29;39.50;99.90
41722;DHT22;27407;24.142;-110.310;2023-08-30T23:28:56;39.80;99.90
41722;DHT22;27407;24.142;-110.310;2023-08-30T23:31:23;40.00;99.90
41722;DHT22;27407;24.142;-110.310;2023-08-30T23:33:50;40.50;99.90
41722;DHT22;27407;24.142;-110.310;2023-08-30T23:36:16;39.20;99.90
41722;DHT22;27407;24.142;-110.310;2023-08-30T23:38:43;37.80;99.90
41722;DHT22;27407;24.142;-110.310;2023-08-30T23:41:09;36.80;99.90
41722;DHT22;27407;24.142;-110.310;2023-08-30T23:43:36;36.10;99.90
41722;DHT22;27407;24.142;-110.310;2023-08-30T23:46:02;35.60;99.90
41722;DHT22;27407;24.142;-110.310;2023-08-30T23:48:29;35.30;99.90
41722;DHT22;27407;24.142;-110.310;2023-08-30T23:50:55;35.10;99.90
41722;DHT22;27407;24.142;-110.310;2023-08-30T23:53:22;35.00;99.90
41722;DHT22;27407;24.142;-110.310;2023-08-30T23:55:49;34.90;99.90
41722;DHT22;27407;24.142;-110.310;2023-08-30T23:58:17;34.90;99.90
